Main page
METAR-TAF:

METAR-TAF

Airports :

Helsinki Airport

Helsinki, Finland

latitude: 60-19N, longitude: 024-58E, elevation: 51 m

Current weather observation

The report was made 30 minutes ago, at 04:50 UTC
Wind 4 kt from the North/Northwest
Temperature 5°C
Humidity 75%
Pressure 1031 hPa
Visibility 10 km or more
no clouds below 1500 m and no cumulonimbus

METAR: EFHK 200450Z 34004KT CAVOK 05/01 Q1031 NOSIG

Time: 08:20 (05:20 UTC)

Forecast

The report was made 2 hours and 50 minutes ago, at 02:30 UTC
Forecast valid from 20 at 03 UTC to 21 at 03 UTC
Wind 7 kt from the North/Northwest
Visibility 10 km or more
no clouds below 1500 m and no cumulonimbus

TAF: EFHK 200230Z 2003/2103 33007KT CAVOK

Weather observations and forecasts of more than 4000 airports (METAR and TAF reports).

The available stations are represented by yellow and red dots on the map.

Hover mouse over dot to see the name of the station.

Then click to see weather observations and forecasts.

To change the map : click on the green buttons with a black cross to zoom in, on the green button with a dash to zoom out, or on the green arrows for adjacent maps.


METAR-TAF: